Sanford, Texas
Current Conditions -  °F | °C
As of 12:51 AM on Thursday 18 Dec 2014 (Local Time) from KBGD Reporting Station
Overcast Overcast  
Wind Chill: 36°   Ceiling: 500
Heat Index: 39°   Visibility: 10mi
Dew Point: 36°   Wind: 5mph
Humidity: 89%   Direction: 190°S
Pressure: 30.01"   Gusts: NA
Location:  35.7°N, 101.53°W
Report Text: KBGD 180651Z AUTO 19004KT 10SM OVC005 04/02 A3001 RMK AO2 SLP164 T00390022
Loading
Personal Weather Stations






























Interactive Weather Map New forecast layout! Learn more

10-Day Weather Forecast

Advertisements
Track Severe Weather on mobile